createdAt,value
2019-02-28T00:05:05.906Z,7.48
2019-02-28T00:07:36.429Z,7.37
2019-02-28T00:10:34.608Z,7.50
2019-02-28T00:13:05.296Z,7.43
2019-02-28T00:15:37.017Z,7.35
2019-02-28T00:18:17.957Z,7.29
2019-02-28T00:20:48.704Z,7.26
2019-02-28T00:23:22.038Z,7.29
2019-02-28T00:25:51.795Z,7.23
2019-02-28T00:28:25.777Z,7.14
2019-02-28T00:30:57.971Z,7.16
2019-02-28T00:33:30.859Z,7.17
2019-02-28T00:36:00.931Z,7.13
2019-02-28T00:38:32.496Z,7.12
2019-02-28T00:41:03.096Z,6.87
2019-02-28T00:43:33.743Z,6.90
2019-02-28T00:46:07.174Z,6.83
2019-02-28T00:48:36.815Z,6.80
2019-02-28T00:51:07.591Z,6.95
2019-02-28T00:53:38.239Z,6.96
2019-02-28T00:56:17.568Z,7.04
2019-02-28T00:58:49.058Z,6.94
2019-02-28T01:01:19.769Z,7.10
2019-02-28T01:03:51.374Z,7.14
2019-02-28T01:06:21.969Z,7.03
2019-02-28T01:08:52.995Z,7.07
2019-02-28T01:11:32.507Z,7.01
2019-02-28T01:14:03.327Z,7.00
2019-02-28T01:16:33.981Z,7.00
2019-02-28T01:19:08.682Z,6.98
2019-02-28T01:21:38.051Z,6.99
2019-02-28T01:24:08.743Z,7.03
2019-02-28T01:26:40.383Z,6.90
2019-02-28T01:29:26.376Z,6.84
2019-02-28T01:32:01.745Z,6.90
2019-02-28T01:34:33.044Z,6.92
2019-02-28T01:37:11.914Z,6.94
2019-02-28T01:39:42.504Z,6.90
2019-02-28T01:42:13.168Z,6.93
2019-02-28T01:44:43.745Z,6.96
2019-02-28T01:47:14.332Z,6.85
2019-02-28T01:49:44.958Z,6.93
2019-02-28T01:52:15.571Z,6.71
2019-02-28T01:54:48.163Z,6.82
2019-02-28T01:57:18.860Z,6.79
2019-02-28T01:59:52.896Z,6.76
2019-02-28T02:02:33.949Z,6.76
2019-02-28T02:08:42.661Z,6.75
2019-02-28T02:11:13.364Z,6.72
2019-02-28T02:13:43.982Z,6.78
2019-02-28T02:16:14.644Z,6.82
2019-02-28T02:18:45.394Z,6.67
2019-02-28T02:21:16.044Z,6.79
2019-02-28T02:23:49.665Z,6.75
2019-02-28T02:26:19.044Z,6.87
2019-02-28T02:28:49.630Z,6.82
2019-02-28T02:31:27.604Z,6.84
2019-02-28T02:33:52.771Z,6.67
2019-02-28T02:36:23.523Z,6.76
2019-02-28T02:38:57.314Z,6.82
2019-02-28T02:41:39.609Z,6.81
2019-02-28T02:44:11.358Z,6.86
2019-02-28T02:46:42.084Z,6.82
2019-02-28T02:49:18.493Z,6.82
2019-02-28T02:51:49.429Z,6.85
2019-02-28T02:54:20.214Z,6.77
2019-02-28T02:56:50.947Z,6.74
2019-02-28T02:59:21.569Z,6.73
2019-02-28T03:01:56.189Z,6.64
2019-02-28T03:04:24.415Z,6.56
2019-02-28T03:06:54.916Z,6.58
2019-02-28T03:09:25.566Z,6.54
2019-02-28T03:11:57.668Z,6.52
2019-02-28T03:15:10.904Z,6.41
2019-02-28T03:17:53.743Z,6.42
2019-02-28T03:20:35.770Z,6.39
2019-02-28T03:23:15.368Z,6.42
2019-02-28T03:25:46.042Z,6.36
2019-02-28T03:28:16.654Z,6.37
2019-02-28T03:30:47.153Z,6.28
2019-02-28T03:33:27.447Z,6.25
2019-02-28T03:35:50.090Z,6.18
2019-02-28T03:38:20.680Z,6.24
2019-02-28T03:40:56.980Z,6.21
2019-02-28T03:43:27.540Z,6.22
2019-02-28T03:45:58.228Z,6.26
2019-02-28T03:48:34.671Z,6.26
2019-02-28T03:51:01.092Z,6.27
2019-02-28T03:53:31.775Z,6.18
2019-02-28T03:56:02.452Z,6.21
2019-02-28T03:58:37.448Z,6.19
2019-02-28T04:01:18.603Z,6.23
2019-02-28T04:03:49.287Z,6.24
2019-02-28T04:06:19.858Z,6.22
2019-02-28T04:08:50.548Z,6.22
2019-02-28T04:11:21.183Z,6.17
2019-02-28T04:14:13.696Z,6.06
2019-02-28T04:17:02.299Z,5.91
2019-02-28T04:19:49.747Z,5.77
2019-02-28T04:22:58.415Z,5.88
2019-02-28T04:25:26.473Z,5.98
2019-02-28T04:27:57.200Z,5.89
2019-02-28T04:30:29.505Z,6.05
2019-02-28T04:33:04.350Z,6.00
2019-02-28T04:35:34.985Z,6.06
2019-02-28T04:38:37.719Z,6.02
2019-02-28T04:41:08.374Z,6.09
2019-02-28T04:43:41.538Z,6.16
2019-02-28T04:46:13.500Z,6.16
2019-02-28T04:48:45.741Z,6.07
2019-02-28T04:51:31.511Z,6.10
2019-02-28T04:54:08.329Z,6.16
2019-02-28T04:56:38.953Z,6.19
2019-02-28T04:59:09.714Z,5.99
2019-02-28T05:01:40.446Z,6.05
2019-02-28T05:04:11.111Z,6.14
2019-02-28T05:06:45.995Z,6.16
2019-02-28T05:09:16.596Z,6.16
2019-02-28T05:11:47.192Z,6.16
2019-02-28T05:14:23.371Z,6.12
2019-02-28T05:16:51.248Z,6.17
2019-02-28T05:19:32.394Z,6.18
2019-02-28T05:22:07.091Z,6.14
2019-02-28T05:24:49.802Z,6.09
2019-02-28T05:27:20.469Z,6.12
2019-02-28T05:29:51.162Z,6.17
2019-02-28T05:32:32.137Z,6.07
2019-02-28T05:38:36.681Z,6.06
2019-02-28T05:41:07.298Z,6.08
2019-02-28T05:43:38.044Z,5.94
2019-02-28T05:46:09.770Z,6.12
2019-02-28T05:48:40.357Z,6.12
2019-02-28T05:51:11.022Z,6.14
2019-02-28T05:53:42.740Z,6.12
2019-02-28T05:56:25.719Z,6.05
2019-02-28T05:59:00.928Z,5.99
2019-02-28T06:01:31.599Z,6.02
2019-02-28T06:04:04.044Z,6.07
2019-02-28T06:06:34.735Z,6.05
2019-02-28T06:09:06.600Z,6.07
2019-02-28T06:11:37.340Z,5.98
2019-02-28T06:14:07.981Z,6.11
2019-02-28T06:16:38.576Z,5.97
2019-02-28T06:19:09.248Z,5.96
2019-02-28T06:21:40.895Z,5.95
2019-02-28T06:24:26.750Z,6.11
2019-02-28T06:27:17.014Z,6.05
2019-02-28T06:29:47.659Z,6.07
2019-02-28T06:32:59.552Z,6.00
2019-02-28T06:35:30.314Z,6.15
2019-02-28T06:38:01.058Z,6.04
2019-02-28T06:40:33.168Z,6.02
2019-02-28T06:43:04.280Z,6.01
2019-02-28T06:45:37.564Z,6.02
2019-02-28T06:48:10.524Z,6.02
2019-02-28T06:50:50.841Z,6.07
2019-02-28T06:53:37.111Z,6.07
2019-02-28T06:56:07.836Z,6.13
2019-02-28T06:58:38.487Z,6.08
2019-02-28T07:01:09.210Z,6.12
2019-02-28T07:03:42.504Z,6.19
2019-02-28T07:06:13.347Z,6.28
2019-02-28T07:08:43.955Z,6.31
2019-02-28T07:11:14.624Z,6.30
2019-02-28T07:13:45.304Z,6.35
2019-02-28T07:16:16.347Z,6.36
2019-02-28T07:19:09.070Z,6.47
2019-02-28T07:21:43.978Z,6.46
2019-02-28T07:24:18.136Z,6.68
2019-02-28T07:26:52.290Z,6.81
2019-02-28T07:29:21.181Z,7.08
2019-02-28T07:31:51.875Z,7.28
2019-02-28T07:34:23.979Z,7.50
2019-02-28T07:36:54.784Z,7.74
2019-02-28T07:39:25.501Z,7.85
2019-02-28T07:41:58.865Z,7.96
2019-02-28T07:44:28.514Z,8.29
2019-02-28T07:47:22.707Z,8.51
2019-02-28T07:49:55.528Z,8.35
2019-02-28T07:52:32.421Z,8.37
2019-02-28T07:54:58.592Z,8.62
2019-02-28T07:57:39.539Z,8.74
2019-02-28T08:00:43.391Z,8.59
2019-02-28T08:03:14.082Z,8.90
2019-02-28T08:05:44.798Z,8.78
2019-02-28T08:08:15.420Z,8.88
2019-02-28T08:10:47.978Z,8.82
2019-02-28T08:13:20.325Z,8.92
2019-02-28T08:16:15.425Z,9.16
2019-02-28T08:18:46.043Z,9.18
2019-02-28T08:21:17.663Z,9.47
2019-02-28T08:23:48.394Z,9.45
2019-02-28T08:26:19.707Z,9.63
2019-02-28T08:28:50.516Z,9.42
2019-02-28T08:31:31.974Z,9.61
2019-02-28T08:34:07.247Z,9.69
2019-02-28T08:36:46.892Z,9.49
2019-02-28T08:39:17.359Z,9.76
2019-02-28T08:41:49.597Z,10.21
2019-02-28T08:44:58.118Z,10.22
2019-02-28T08:47:24.580Z,10.54
2019-02-28T08:49:55.285Z,10.69
2019-02-28T08:52:37.589Z,10.91
2019-02-28T08:55:09.507Z,10.89
2019-02-28T08:57:44.349Z,11.03
2019-02-28T09:00:17.016Z,11.06
2019-02-28T09:02:52.205Z,11.30
2019-02-28T09:05:26.348Z,10.88
2019-02-28T09:08:09.604Z,11.11
2019-02-28T09:10:40.290Z,11.01
2019-02-28T09:13:15.088Z,11.12
2019-02-28T09:15:46.803Z,11.28
2019-02-28T09:18:17.491Z,11.49
2019-02-28T09:21:00.327Z,11.69
2019-02-28T09:24:03.535Z,11.91
2019-02-28T09:26:34.352Z,11.87
2019-02-28T09:29:12.105Z,11.47
2019-02-28T09:31:42.778Z,11.43
2019-02-28T09:34:13.529Z,11.45
2019-02-28T09:40:13.844Z,11.88
2019-02-28T09:42:54.544Z,12.04
2019-02-28T09:45:26.280Z,11.80
2019-02-28T09:48:01.840Z,11.98
2019-02-28T09:50:39.490Z,11.91
2019-02-28T09:53:15.575Z,11.79
2019-02-28T09:55:42.621Z,11.78
2019-02-28T09:58:14.362Z,12.03
2019-02-28T10:00:50.398Z,12.15
2019-02-28T10:03:20.623Z,12.39
2019-02-28T10:06:08.779Z,12.63
2019-02-28T10:08:39.432Z,12.67
2019-02-28T10:11:14.672Z,12.69
2019-02-28T10:13:45.265Z,12.69
2019-02-28T10:16:16.799Z,12.82
2019-02-28T10:18:50.304Z,13.03
2019-02-28T10:21:33.344Z,13.31
2019-02-28T10:24:18.487Z,13.50
2019-02-28T10:26:51.500Z,13.68
2019-02-28T10:29:21.487Z,13.32
2019-02-28T10:31:52.261Z,13.36
2019-02-28T10:34:23.528Z,13.31
2019-02-28T10:37:04.311Z,13.20
2019-02-28T10:39:35.126Z,13.06
2019-02-28T10:42:14.144Z,12.81
2019-02-28T10:44:56.912Z,12.87
2019-02-28T10:47:31.355Z,12.81
2019-02-28T10:50:02.084Z,12.68
2019-02-28T10:52:33.814Z,12.62
2019-02-28T10:55:04.730Z,12.76
2019-02-28T10:57:40.398Z,12.69
2019-02-28T11:00:25.546Z,12.69
2019-02-28T11:02:57.695Z,12.58
2019-02-28T11:05:40.688Z,12.68
2019-02-28T11:08:14.829Z,12.74
2019-02-28T11:11:10.582Z,12.63
2019-02-28T11:13:41.845Z,12.79
2019-02-28T11:16:12.644Z,12.75
2019-02-28T11:18:43.399Z,12.81
2019-02-28T11:21:17.171Z,12.97
2019-02-28T11:23:50.156Z,13.00
2019-02-28T11:26:20.594Z,13.24
2019-02-28T11:28:51.354Z,13.48
2019-02-28T11:31:36.064Z,13.70
2019-02-28T11:34:07.002Z,13.79
2019-02-28T11:36:37.743Z,13.78
2019-02-28T11:39:08.580Z,13.83
2019-02-28T11:41:39.438Z,13.91
2019-02-28T11:44:30.491Z,13.72
2019-02-28T11:47:02.124Z,13.91
2019-02-28T11:49:34.736Z,13.94
2019-02-28T11:52:05.449Z,13.99
2019-02-28T11:54:37.132Z,13.94
2019-02-28T11:57:07.752Z,13.90
2019-02-28T11:59:39.355Z,13.78
2019-02-28T12:02:21.470Z,13.90
2019-02-28T12:04:51.978Z,14.03
2019-02-28T12:07:46.308Z,14.03
2019-02-28T12:10:31.160Z,14.01
2019-02-28T12:13:13.182Z,14.01
2019-02-28T12:16:16.277Z,14.07
2019-02-28T12:18:48.165Z,14.17
2019-02-28T12:21:38.085Z,14.28
2019-02-28T12:24:10.800Z,14.39
2019-02-28T12:26:42.513Z,14.44
2019-02-28T12:29:13.867Z,14.49
2019-02-28T12:31:44.458Z,14.63
2019-02-28T12:34:35.239Z,14.51
2019-02-28T12:37:10.934Z,14.28
2019-02-28T12:39:42.692Z,14.29
2019-02-28T12:42:17.338Z,14.05
2019-02-28T12:44:49.042Z,14.25
2019-02-28T12:47:29.390Z,14.26
2019-02-28T12:50:10.562Z,14.48
2019-02-28T12:52:42.334Z,14.48
2019-02-28T12:55:15.284Z,14.41
2019-02-28T12:57:45.885Z,14.50
2019-02-28T13:00:24.109Z,14.51
2019-02-28T13:02:54.836Z,14.50
2019-02-28T13:05:25.546Z,14.39
2019-02-28T13:07:56.288Z,14.19
2019-02-28T13:10:28.570Z,14.25
2019-02-28T13:13:07.947Z,14.29
2019-02-28T13:15:38.865Z,14.33
2019-02-28T13:18:11.653Z,14.42
2019-02-28T13:20:43.454Z,14.33
2019-02-28T13:23:24.911Z,14.36
2019-02-28T13:25:59.187Z,14.42
2019-02-28T13:28:28.902Z,14.43
2019-02-28T13:30:59.564Z,14.55
2019-02-28T13:33:42.359Z,14.58
2019-02-28T13:36:31.176Z,14.60
2019-02-28T13:39:08.355Z,14.73
2019-02-28T13:41:39.429Z,14.71
2019-02-28T13:44:10.236Z,14.48
2019-02-28T13:46:44.060Z,14.55
2019-02-28T13:49:20.319Z,14.52
2019-02-28T13:51:50.975Z,14.48
2019-02-28T13:54:22.870Z,14.37
2019-02-28T13:56:53.571Z,14.25
2019-02-28T13:59:24.160Z,14.02
2019-02-28T14:01:58.361Z,13.93
2019-02-28T14:04:28.935Z,13.54
2019-02-28T14:06:59.606Z,13.24
2019-02-28T14:09:30.232Z,12.98
2019-02-28T14:12:00.983Z,12.70
2019-02-28T14:14:31.756Z,12.40
2019-02-28T14:17:03.471Z,12.42
2019-02-28T14:19:35.111Z,12.23
2019-02-28T14:22:08.615Z,12.12
2019-02-28T14:24:38.200Z,11.92
2019-02-28T14:27:09.976Z,11.90
2019-02-28T14:29:42.631Z,11.92
2019-02-28T14:32:13.815Z,11.87
2019-02-28T14:34:44.557Z,12.06
2019-02-28T14:37:40.585Z,12.03
2019-02-28T14:40:14.548Z,11.99
2019-02-28T14:42:44.814Z,12.00
2019-02-28T14:45:15.950Z,11.95
2019-02-28T14:47:56.904Z,11.90
2019-02-28T14:50:25.452Z,12.14
2019-02-28T14:53:15.630Z,12.01
2019-02-28T14:55:58.430Z,12.06
2019-02-28T14:58:36.252Z,11.82
2019-02-28T15:01:08.306Z,12.00
2019-02-28T15:03:54.615Z,12.12
2019-02-28T15:06:26.446Z,12.02
2019-02-28T15:08:57.758Z,11.95
2019-02-28T15:11:28.406Z,11.98
2019-02-28T15:13:59.070Z,12.09
2019-02-28T15:16:30.421Z,12.09
2019-02-28T15:19:15.116Z,12.17
2019-02-28T15:22:17.646Z,12.22
2019-02-28T15:24:51.236Z,12.21
2019-02-28T15:27:21.904Z,12.33
2019-02-28T15:29:58.832Z,12.31
2019-02-28T15:32:46.643Z,12.22
2019-02-28T15:35:29.143Z,12.28
2019-02-28T15:38:05.903Z,12.36
2019-02-28T15:40:40.422Z,12.34
2019-02-28T15:43:16.903Z,12.45
2019-02-28T15:45:52.890Z,12.37
2019-02-28T15:48:23.551Z,12.40
2019-02-28T15:50:55.302Z,12.43
2019-02-28T15:53:26.096Z,12.56
2019-02-28T15:55:58.775Z,12.56
2019-02-28T15:58:41.391Z,12.59
2019-02-28T16:01:13.991Z,12.52
2019-02-28T16:03:48.333Z,12.53
2019-02-28T16:06:19.696Z,12.35
2019-02-28T16:08:50.382Z,12.42
2019-02-28T16:11:33.316Z,12.40
2019-02-28T16:14:14.579Z,12.39
2019-02-28T16:16:50.469Z,12.27
2019-02-28T16:19:22.822Z,12.29
2019-02-28T16:21:53.584Z,12.15
2019-02-28T16:24:24.194Z,12.09
2019-02-28T16:27:13.464Z,12.19
2019-02-28T16:29:44.129Z,12.15
2019-02-28T16:32:33.474Z,12.22
2019-02-28T16:35:14.733Z,12.13
2019-02-28T16:37:46.992Z,12.11
2019-02-28T16:40:26.266Z,12.17
2019-02-28T16:42:54.588Z,12.27
2019-02-28T16:45:37.554Z,12.22
2019-02-28T16:48:20.584Z,12.21
2019-02-28T16:50:53.695Z,12.09
2019-02-28T16:53:41.813Z,12.01
2019-02-28T16:56:12.572Z,12.00
2019-02-28T16:58:43.187Z,12.01
2019-02-28T17:01:17.477Z,12.12
2019-02-28T17:03:55.467Z,12.02
2019-02-28T17:06:26.184Z,12.06
2019-02-28T17:08:59.463Z,12.16
2019-02-28T17:11:47.478Z,12.10
2019-02-28T17:14:18.886Z,12.18
2019-02-28T17:16:54.300Z,12.06
2019-02-28T17:19:24.994Z,12.11
2019-02-28T17:21:55.712Z,12.10
2019-02-28T17:24:26.494Z,12.17
2019-02-28T17:27:02.413Z,12.06
2019-02-28T17:29:37.564Z,11.99
2019-02-28T17:32:08.321Z,11.98
2019-02-28T17:34:39.027Z,11.94
2019-02-28T17:37:09.799Z,12.02
2019-02-28T17:39:40.386Z,12.00
2019-02-28T17:42:14.836Z,12.01
2019-02-28T17:45:22.495Z,12.03
2019-02-28T17:51:39.064Z,12.11
2019-02-28T17:54:57.286Z,12.03
2019-02-28T17:58:14.062Z,11.96
2019-02-28T18:01:28.743Z,11.84
2019-02-28T18:04:31.161Z,11.85
2019-02-28T18:07:28.835Z,11.76
2019-02-28T18:11:00.124Z,11.81
2019-02-28T18:14:20.963Z,11.73
2019-02-28T18:17:32.382Z,11.71
2019-02-28T18:20:42.922Z,11.75
2019-02-28T18:23:54.694Z,11.69
2019-02-28T18:27:02.560Z,11.65
2019-02-28T18:30:27.774Z,11.66
2019-02-28T18:33:33.576Z,11.69
2019-02-28T18:36:08.281Z,11.64
2019-02-28T18:38:39.476Z,11.82
2019-02-28T18:41:10.082Z,11.67
2019-02-28T18:43:40.767Z,11.74
2019-02-28T18:46:17.458Z,11.64
2019-02-28T18:48:51.269Z,11.69
2019-02-28T18:51:49.031Z,11.53
2019-02-28T18:54:33.603Z,11.52
2019-02-28T18:57:05.381Z,11.50
2019-02-28T18:59:43.095Z,11.37
2019-02-28T19:02:13.851Z,11.40
2019-02-28T19:04:56.564Z,11.38
2019-02-28T19:07:27.470Z,11.31
2019-02-28T19:09:58.082Z,11.24
2019-02-28T19:12:28.775Z,11.18
2019-02-28T19:15:14.108Z,11.14
2019-02-28T19:17:49.158Z,11.25
2019-02-28T19:20:28.983Z,11.32
2019-02-28T19:23:07.552Z,11.17
2019-02-28T19:25:38.248Z,11.16
2019-02-28T19:28:08.965Z,11.13
2019-02-28T19:30:39.689Z,10.97
2019-02-28T19:33:10.472Z,11.04
2019-02-28T19:35:41.213Z,11.05
2019-02-28T19:38:11.912Z,11.07
2019-02-28T19:40:42.516Z,11.04
2019-02-28T19:43:13.238Z,10.96
2019-02-28T19:45:51.386Z,10.95
2019-02-28T19:48:25.506Z,11.02
2019-02-28T19:50:59.177Z,11.04
2019-02-28T19:53:47.914Z,11.08
2019-02-28T19:56:20.556Z,11.18
2019-02-28T19:58:51.558Z,11.02
2019-02-28T20:01:22.591Z,10.98
2019-02-28T20:03:59.476Z,10.97
2019-02-28T20:06:43.675Z,10.89
2019-02-28T20:09:14.501Z,10.87
2019-02-28T20:11:45.150Z,10.89
2019-02-28T20:14:23.153Z,10.84
2019-02-28T20:16:57.560Z,10.77
2019-02-28T20:19:29.824Z,10.73
2019-02-28T20:22:00.634Z,10.72
2019-02-28T20:24:31.686Z,10.71
2019-02-28T20:27:02.788Z,10.76
2019-02-28T20:29:33.908Z,10.63
2019-02-28T20:32:18.953Z,10.75
2019-02-28T20:34:49.618Z,10.74
2019-02-28T20:37:21.514Z,10.66
2019-02-28T20:39:52.345Z,10.73
2019-02-28T20:42:23.441Z,10.74
2019-02-28T20:45:01.902Z,10.80
2019-02-28T20:47:36.149Z,10.71
2019-02-28T20:50:13.789Z,10.70
2019-02-28T20:52:47.623Z,10.72
2019-02-28T20:55:24.707Z,10.84
2019-02-28T20:58:33.109Z,10.61
2019-02-28T21:01:11.797Z,10.75
2019-02-28T21:03:43.889Z,10.79
2019-02-28T21:06:14.684Z,10.74
2019-02-28T21:08:45.815Z,10.75
2019-02-28T21:11:17.472Z,10.73
2019-02-28T21:14:00.565Z,10.84
2019-02-28T21:16:31.253Z,10.72
2019-02-28T21:19:02.334Z,10.68
2019-02-28T21:21:35.934Z,10.51
2019-02-28T21:24:07.054Z,10.51
2019-02-28T21:26:42.681Z,10.42
2019-02-28T21:29:17.330Z,10.33
2019-02-28T21:31:48.996Z,10.41
2019-02-28T21:34:26.105Z,10.47
2019-02-28T21:37:00.065Z,10.49
2019-02-28T21:39:38.645Z,10.37
2019-02-28T21:42:28.948Z,10.33
2019-02-28T21:45:10.976Z,10.18
2019-02-28T21:47:55.098Z,10.09
2019-02-28T21:50:25.870Z,10.05
2019-02-28T21:53:03.972Z,10.02
2019-02-28T21:55:38.296Z,9.90
2019-02-28T21:58:09.194Z,9.87
2019-02-28T22:00:40.075Z,9.86
2019-02-28T22:03:27.982Z,9.83
2019-02-28T22:05:58.631Z,9.87
2019-02-28T22:08:29.250Z,9.94
2019-02-28T22:10:59.890Z,9.98
2019-02-28T22:13:30.572Z,9.81
2019-02-28T22:16:02.249Z,9.76
2019-02-28T22:18:33.015Z,9.69
2019-02-28T22:21:21.830Z,9.72
2019-02-28T22:24:14.837Z,9.75
2019-02-28T22:26:45.597Z,9.77
2019-02-28T22:29:26.292Z,9.84
2019-02-28T22:32:01.393Z,9.80
2019-02-28T22:34:51.038Z,9.87
2019-02-28T22:37:21.839Z,9.91
2019-02-28T22:39:53.350Z,9.87
2019-02-28T22:42:24.139Z,9.85
2019-02-28T22:44:58.876Z,9.84
2019-02-28T22:47:42.041Z,9.78
2019-02-28T22:50:13.015Z,9.84
2019-02-28T22:53:20.028Z,9.99
2019-02-28T22:55:52.331Z,9.87
2019-02-28T22:58:29.786Z,9.89
2019-02-28T23:01:10.613Z,9.73
2019-02-28T23:07:29.668Z,9.81
2019-02-28T23:10:18.039Z,9.82
2019-02-28T23:12:48.628Z,9.83
2019-02-28T23:15:19.297Z,9.97
2019-02-28T23:17:54.335Z,10.07
2019-02-28T23:20:39.964Z,10.08
2019-02-28T23:23:28.498Z,10.16
2019-02-28T23:26:10.473Z,10.12
2019-02-28T23:29:11.198Z,10.23
2019-02-28T23:32:38.306Z,10.22
2019-02-28T23:35:46.042Z,10.19
2019-02-28T23:38:16.674Z,10.16
2019-02-28T23:40:47.385Z,10.09
2019-02-28T23:43:18.059Z,10.07
2019-02-28T23:46:32.329Z,10.11
2019-02-28T23:49:15.406Z,10.12
2019-02-28T23:51:53.558Z,10.10
2019-02-28T23:54:29.842Z,9.96
2019-02-28T23:57:00.504Z,10.09
2019-02-28T23:59:31.405Z,10.10
